Time;durP1;ratioP1;P1;durP2;ratioP2;P2;SDS_P1;SDS_P2;PMS_P1;PMS_P2;Temp;Humidity;BMP_temperature;BMP_pressure;BME280_temperature;BME280_humidity;BME280_pressure;Samples;Min_cycle;Max_cycle;Signal;HPM_P1;HPM_P2
2023/03/13 00:01:32;;;;;;;17.60;9.40;;;;;;;5.00;78.71;100343.59;5007237;28;20034;-57
2023/03/13 00:03:58;;;;;;;20.52;10.98;;;;;;;5.03;78.66;100355.69;5007901;28;20069;-58
2023/03/13 00:06:26;;;;;;;20.20;10.68;;;;;;;5.06;78.87;100366.00;5004840;28;20569;-56
2023/03/13 00:08:51;;;;;;;17.80;9.38;;;;;;;5.04;79.18;100347.78;5007864;28;20030;-59
2023/03/13 00:11:17;;;;;;;21.75;9.63;;;;;;;5.08;79.01;100352.88;5005129;28;20040;-61
2023/03/13 00:13:43;;;;;;;22.52;10.10;;;;;;;5.07;78.94;100357.22;5007125;28;20463;-61
2023/03/13 00:16:13;;;;;;;17.25;10.20;;;;;;;5.10;79.22;100346.69;5008077;28;20066;-61
2023/03/13 00:18:45;;;;;;;20.10;9.93;;;;;;;5.12;79.15;100342.25;5011464;28;20488;-61
2023/03/13 00:21:10;;;;;;;22.33;10.40;;;;;;;5.17;78.80;100331.63;5003442;28;20079;-61
2023/03/13 00:23:37;;;;;;;19.42;10.45;;;;;;;5.19;78.88;100335.88;5008586;28;20455;-58
2023/03/13 00:26:08;;;;;;;18.50;9.88;;;;;;;5.19;79.04;100325.44;5008001;28;20044;-58
2023/03/13 00:28:35;;;;;;;19.25;10.93;;;;;;;5.23;79.09;100320.09;5009439;28;20061;-59
2023/03/13 00:31:12;;;;;;;22.17;11.65;;;;;;;5.25;79.03;100318.25;5007251;28;20562;-58
2023/03/13 00:33:43;;;;;;;20.75;10.63;;;;;;;5.26;79.20;100322.56;5001719;28;20037;-60
2023/03/13 00:36:21;;;;;;;24.30;9.98;;;;;;;5.28;79.12;100325.97;5004197;28;20161;-58
2023/03/13 00:38:47;;;;;;;17.55;10.05;;;;;;;5.28;79.80;100328.56;5005990;28;20096;-57
2023/03/13 00:41:17;;;;;;;19.05;10.27;;;;;;;5.28;79.59;100328.56;5008426;28;21470;-58
2023/03/13 00:43:44;;;;;;;22.77;10.60;;;;;;;5.29;79.70;100332.88;5013177;28;20156;-58
2023/03/13 00:46:11;;;;;;;23.40;9.38;;;;;;;5.30;79.63;100331.97;5009220;28;20543;-57
2023/03/13 00:48:37;;;;;;;18.90;9.30;;;;;;;5.31;79.95;100331.06;5008919;28;20033;-60
2023/03/13 00:51:03;;;;;;;23.70;10.43;;;;;;;5.30;80.33;100326.75;5007714;28;20468;-57
2023/03/13 00:53:30;;;;;;;20.60;9.57;;;;;;;5.32;79.89;100324.94;5006790;28;20044;-58
2023/03/13 00:56:04;;;;;;;21.15;9.85;;;;;;;5.34;80.13;100328.31;5002625;28;20034;-58
2023/03/13 00:58:34;;;;;;;16.10;8.40;;;;;;;5.36;80.16;100326.50;5003344;28;20029;-58
2023/03/13 01:01:08;;;;;;;19.52;9.02;;;;;;;5.37;80.36;100325.56;4999439;28;20506;-57
2023/03/13 01:03:34;;;;;;;21.92;9.52;;;;;;;5.38;80.29;100329.88;5004851;28;20026;-57
2023/03/13 01:06:01;;;;;;;16.63;9.32;;;;;;;5.39;79.96;100325.50;5001083;28;20690;-59
2023/03/13 01:08:28;;;;;;;23.65;10.05;;;;;;;5.38;80.44;100319.44;5006582;28;20411;-61
2023/03/13 01:11:05;;;;;;;20.33;8.68;;;;;;;5.39;80.42;100318.53;4997865;28;20034;-59
2023/03/13 01:13:34;;;;;;;17.83;8.38;;;;;;;5.41;80.66;100324.53;5003840;28;20061;-58
2023/03/13 01:16:09;;;;;;;20.55;9.57;;;;;;;5.41;80.31;100319.31;5007992;28;20044;-56
2023/03/13 01:18:35;;;;;;;23.67;8.60;;;;;;;5.42;80.57;100320.16;5009812;28;20049;-54
2023/03/13 01:21:02;;;;;;;19.58;9.43;;;;;;;5.40;80.82;100309.78;5001450;28;20031;-53
2023/03/13 01:23:28;;;;;;;24.10;8.60;;;;;;;5.44;80.62;100313.97;5006736;28;20568;-54
2023/03/13 01:25:54;;;;;;;19.85;8.70;;;;;;;5.46;80.86;100311.28;5007976;28;20112;-54
2023/03/13 01:28:20;;;;;;;21.55;9.25;;;;;;;5.46;80.35;100306.91;5002785;28;20030;-52
2023/03/13 01:30:46;;;;;;;24.55;8.60;;;;;;;5.46;80.61;100291.25;5009356;28;20106;-53
2023/03/13 01:33:11;;;;;;;27.67;9.38;;;;;;;5.49;80.65;100296.34;5004411;28;20037;-53
2023/03/13 01:35:37;;;;;;;19.05;8.93;;;;;;;5.48;80.88;100299.88;5006005;28;20037;-55
2023/03/13 01:38:02;;;;;;;20.77;9.57;;;;;;;5.49;80.98;100291.13;5004161;28;20073;-53
2023/03/13 01:40:28;;;;;;;18.58;9.57;;;;;;;5.50;81.11;100286.75;5007962;28;20029;-57
2023/03/13 01:42:56;;;;;;;22.52;9.93;;;;;;;5.52;81.37;100286.69;5006777;28;20041;-58
2023/03/13 01:45:57;;;;;;;25.13;10.35;;;;;;;5.49;80.82;100275.47;5005932;28;20030;-55
2023/03/13 01:48:28;;;;;;;20.40;8.48;;;;;;;5.50;81.17;100273.69;5005428;28;20128;-54
2023/03/13 01:50:58;;;;;;;22.85;9.30;;;;;;;5.52;81.08;100273.66;5009209;28;20045;-53
2023/03/13 01:53:25;;;;;;;27.52;10.18;;;;;;;5.52;80.96;100268.44;5015623;28;20054;-57
2023/03/13 01:55:52;;;;;;;21.42;8.70;;;;;;;5.52;81.31;100268.44;5017244;28;20084;-56
2023/03/13 01:58:17;;;;;;;21.75;8.80;;;;;;;5.52;81.32;100271.88;5012172;28;20042;-58
2023/03/13 02:00:44;;;;;;;23.83;9.85;;;;;;;5.51;81.38;100272.78;5011249;28;20033;-54
2023/03/13 02:16:47;;;;;;;24.42;9.20;;;;;;;5.43;81.53;100256.63;4981304;28;20046;-54
2023/03/13 02:19:27;;;;;;;28.10;11.50;;;;;;;5.40;81.68;100260.19;4987440;28;20644;-56
2023/03/13 02:22:00;;;;;;;27.35;9.13;;;;;;;5.39;81.86;100250.69;4989953;28;20037;-56
2023/03/13 02:24:53;;;;;;;21.30;9.98;;;;;;;5.39;81.93;100253.28;4989789;28;20355;-55
2023/03/13 02:27:19;;;;;;;24.10;10.32;;;;;;;5.40;81.70;100244.53;4982845;28;20054;-56
2023/03/13 02:29:44;;;;;;;22.23;9.00;;;;;;;5.39;81.68;100242.84;4989867;28;20041;-53
2023/03/13 02:32:10;;;;;;;19.30;8.98;;;;;;;5.37;81.75;100243.84;4987950;28;20034;-55
2023/03/13 02:34:39;;;;;;;29.95;9.55;;;;;;;5.40;81.72;100235.88;4986578;28;20026;-52
2023/03/13 02:37:06;;;;;;;26.92;10.27;;;;;;;5.39;81.80;100242.84;4981069;28;20042;-55
2023/03/13 02:39:32;;;;;;;24.25;8.82;;;;;;;5.39;81.96;100237.63;4985629;28;20049;-55
2023/03/13 02:42:00;;;;;;;26.08;8.95;;;;;;;5.43;82.13;100244.41;4990520;28;20030;-54
2023/03/13 02:44:26;;;;;;;30.70;9.85;;;;;;;5.47;81.90;100235.53;4993243;28;20576;-54
2023/03/13 02:46:51;;;;;;;24.10;9.25;;;;;;;5.51;81.77;100236.25;4991460;28;20133;-52
2023/03/13 02:49:23;;;;;;;19.45;9.23;;;;;;;5.56;82.08;100223.00;4990708;28;20330;-53
2023/03/13 02:51:48;;;;;;;16.15;8.77;;;;;;;5.62;82.16;100222.72;4993033;28;20026;-53
2023/03/13 02:54:21;;;;;;;24.23;11.20;;;;;;;5.67;81.90;100212.94;4988828;28;20089;-55
2023/03/13 02:56:53;;;;;;;27.15;8.80;;;;;;;5.72;81.85;100210.94;4984869;28;20121;-55
2023/03/13 02:59:19;;;;;;;23.10;8.77;;;;;;;5.75;81.84;100208.19;4988992;28;20523;-56
2023/03/13 03:01:44;;;;;;;25.60;9.32;;;;;;;5.79;81.79;100207.13;4994194;28;20039;-53
2023/03/13 03:04:10;;;;;;;18.35;5.50;;;;;;;5.80;81.74;100201.00;4992125;28;20046;-57
2023/03/13 03:06:36;;;;;;;22.38;8.68;;;;;;;5.80;81.76;100201.00;4986147;28;20032;-53
2023/03/13 03:09:01;;;;;;;26.05;8.43;;;;;;;5.83;81.38;100196.53;4987787;28;20042;-53
2023/03/13 03:11:27;;;;;;;23.75;8.60;;;;;;;5.86;81.69;100199.00;4990907;28;20125;-55
2023/03/13 03:13:52;;;;;;;23.70;9.20;;;;;;;5.86;81.26;100196.38;4983567;28;20404;-53
2023/03/13 03:16:18;;;;;;;21.52;8.93;;;;;;;5.87;81.42;100190.25;4989024;28;20153;-52
2023/03/13 03:18:44;;;;;;;19.90;7.88;;;;;;;5.86;81.58;100185.94;4984853;28;20070;-52
2023/03/13 03:21:09;;;;;;;23.65;8.55;;;;;;;5.87;81.88;100182.41;4988343;28;20034;-53
2023/03/13 03:23:36;;;;;;;25.65;8.98;;;;;;;5.88;81.87;100181.50;4992723;28;20026;-56
2023/03/13 03:26:03;;;;;;;25.15;9.60;;;;;;;5.88;81.57;100179.75;4980338;28;20381;-57
2023/03/13 03:28:29;;;;;;;19.27;8.25;;;;;;;5.91;81.54;100176.13;4988418;28;20112;-54
2023/03/13 03:30:55;;;;;;;17.13;8.73;;;;;;;5.89;81.72;100172.75;4986021;28;20069;-55
2023/03/13 03:33:21;;;;;;;18.00;8.98;;;;;;;5.89;81.78;100173.63;4997316;28;20392;-52
2023/03/13 03:35:47;;;;;;;21.10;8.70;;;;;;;5.88;81.80;100171.06;4992210;28;20034;-54
2023/03/13 03:38:13;;;;;;;18.08;7.93;;;;;;;5.89;81.95;100173.63;4990346;28;20034;-52
2023/03/13 03:40:38;;;;;;;24.80;8.35;;;;;;;5.91;81.80;100169.13;4996648;28;20073;-54
2023/03/13 03:43:03;;;;;;;23.23;7.78;;;;;;;5.93;81.62;100164.69;4991662;28;20046;-56
2023/03/13 03:45:29;;;;;;;28.60;8.02;;;;;;;5.93;81.76;100154.25;4986076;28;20034;-55
2023/03/13 03:47:58;;;;;;;22.85;8.77;;;;;;;5.94;81.53;100147.28;4990595;28;20034;-56
2023/03/13 03:50:26;;;;;;;28.40;10.32;;;;;;;5.94;81.84;100145.50;4992260;28;20081;-53
2023/03/13 03:52:52;;;;;;;23.38;8.30;;;;;;;5.95;81.82;100143.75;4990031;28;20027;-57
2023/03/13 03:55:18;;;;;;;20.85;8.95;;;;;;;5.95;81.90;100146.34;4990558;28;20030;-53
2023/03/13 03:57:44;;;;;;;23.83;8.32;;;;;;;5.95;81.69;100146.34;4990129;28;20121;-52
2023/03/13 04:00:14;;;;;;;18.05;7.72;;;;;;;5.99;81.67;100147.88;4991063;28;20030;-56
2023/03/13 04:02:40;;;;;;;16.27;7.53;;;;;;;6.01;82.04;100140.84;4986046;28;20448;-59
2023/03/13 04:05:06;;;;;;;20.38;7.40;;;;;;;6.05;81.69;100141.56;4983903;28;20113;-60
2023/03/13 04:07:31;;;;;;;20.13;8.07;;;;;;;6.07;81.82;100124.03;4987811;28;20038;-60
2023/03/13 04:09:57;;;;;;;19.35;7.65;;;;;;;6.08;81.39;100123.13;4990377;28;20044;-57
2023/03/13 04:12:22;;;;;;;18.60;7.65;;;;;;;6.07;81.96;100118.81;4988982;28;20398;-58
2023/03/13 04:14:48;;;;;;;18.10;7.43;;;;;;;6.07;81.74;100117.06;4984570;28;20037;-57
2023/03/13 04:17:14;;;;;;;22.67;9.10;;;;;;;6.06;81.58;100112.75;4986314;28;20529;-57
2023/03/13 04:19:39;;;;;;;27.40;7.57;;;;;;;6.03;81.82;100110.28;4993139;28;20449;-59
2023/03/13 04:22:05;;;;;;;25.73;9.45;;;;;;;6.02;81.92;100100.75;4988709;28;20030;-59
2023/03/13 04:24:30;;;;;;;18.00;7.15;;;;;;;6.00;81.81;100099.97;4991562;28;20041;-60
2023/03/13 04:26:55;;;;;;;26.30;7.75;;;;;;;5.98;82.26;100093.94;4989680;28;20038;-56
2023/03/13 04:29:21;;;;;;;18.65;7.20;;;;;;;5.99;82.31;100094.81;4989711;28;20035;-61
2023/03/13 04:31:46;;;;;;;19.08;7.03;;;;;;;5.98;81.95;100093.94;4980589;28;20282;-58
2023/03/13 04:34:12;;;;;;;15.85;8.00;;;;;;;6.00;81.95;100086.09;4980863;28;20445;-57
2023/03/13 04:36:37;;;;;;;20.27;7.25;;;;;;;6.00;81.99;100089.53;4988557;28;20110;-58
2023/03/13 04:39:03;;;;;;;19.58;7.60;;;;;;;6.02;81.98;100085.09;4988105;28;20034;-59
2023/03/13 04:41:29;;;;;;;23.58;7.10;;;;;;;6.04;81.90;100080.63;4988020;28;20393;-60
2023/03/13 04:43:54;;;;;;;16.10;6.90;;;;;;;6.09;82.08;100076.03;4980484;28;20041;-61
2023/03/13 04:46:19;;;;;;;20.17;7.80;;;;;;;6.10;81.96;100082.97;4986605;28;20034;-61
2023/03/13 04:48:45;;;;;;;24.73;8.40;;;;;;;6.14;82.22;100069.72;4981845;28;20504;-60
2023/03/13 04:51:12;;;;;;;24.58;8.05;;;;;;;6.20;82.08;100069.41;4976897;28;20416;-59
2023/03/13 04:53:37;;;;;;;22.38;8.18;;;;;;;6.22;81.61;100068.41;4983549;28;20038;-58
2023/03/13 04:56:03;;;;;;;23.80;6.53;;;;;;;6.25;81.90;100055.19;4981725;28;20038;-60
2023/03/13 04:58:29;;;;;;;28.33;8.63;;;;;;;6.29;81.62;100052.44;4982917;28;20369;-61
2023/03/13 05:00:55;;;;;;;14.80;6.10;;;;;;;6.31;81.60;100048.81;4987954;28;20030;-59
2023/03/13 05:03:21;;;;;;;18.02;6.57;;;;;;;6.34;81.57;100043.44;4974896;28;20065;-58
2023/03/13 05:05:47;;;;;;;17.02;6.50;;;;;;;6.37;81.79;100032.84;4988532;28;20049;-58
2023/03/13 05:08:12;;;;;;;18.45;6.68;;;;;;;6.38;81.60;100037.13;4986979;28;20039;-58
2023/03/13 05:10:38;;;;;;;26.60;9.60;;;;;;;6.40;81.94;100023.97;4992361;28;20041;-58
2023/03/13 05:13:03;;;;;;;18.10;7.40;;;;;;;6.40;82.01;100013.53;4988738;28;20061;-57
2023/03/13 05:15:29;;;;;;;19.08;7.18;;;;;;;6.42;81.75;100009.06;4991291;28;20042;-59
2023/03/13 05:17:57;;;;;;;14.70;5.75;;;;;;;6.45;81.87;100019.38;4985964;28;20022;-60
2023/03/13 05:20:23;;;;;;;16.65;5.93;;;;;;;6.46;81.89;100008.00;4984246;28;20093;-59
2023/03/13 05:22:48;;;;;;;23.42;7.15;;;;;;;6.46;81.68;100012.34;4989637;28;20031;-59
2023/03/13 05:25:14;;;;;;;21.08;8.55;;;;;;;6.50;81.77;100008.66;4988626;28;20034;-58
2023/03/13 05:27:39;;;;;;;15.38;7.55;;;;;;;6.51;82.01;100002.53;4991363;28;20034;-59
2023/03/13 05:30:06;;;;;;;22.90;6.85;;;;;;;6.51;81.76;99998.13;4993967;28;20117;-56
2023/03/13 05:32:31;;;;;;;21.60;6.40;;;;;;;6.52;81.98;99991.13;4986283;28;20038;-61
2023/03/13 05:34:56;;;;;;;16.50;6.30;;;;;;;6.53;82.02;99985.00;4975558;28;20034;-58
2023/03/13 05:37:22;;;;;;;16.02;5.15;;;;;;;6.55;81.89;99983.16;4981630;28;20069;-57
2023/03/13 05:39:47;;;;;;;15.73;6.30;;;;;;;6.57;81.87;99978.69;4976428;28;20575;-54
2023/03/13 05:42:13;;;;;;;18.15;5.30;;;;;;;6.60;81.85;99968.03;4986034;28;20038;-58
2023/03/13 05:44:38;;;;;;;23.70;7.18;;;;;;;6.63;81.87;99962.66;4986762;28;20026;-53
2023/03/13 05:47:04;;;;;;;22.33;6.18;;;;;;;6.67;82.14;99961.56;4989845;28;20446;-53
2023/03/13 05:49:29;;;;;;;16.88;5.47;;;;;;;6.73;82.05;99954.31;4991660;28;20038;-56
2023/03/13 05:51:55;;;;;;;18.25;6.00;;;;;;;6.73;81.70;99951.72;4989338;28;20109;-57
2023/03/13 05:54:20;;;;;;;18.33;5.82;;;;;;;6.73;81.87;99934.25;4992374;28;20030;-56
2023/03/13 05:56:47;;;;;;;16.95;5.50;;;;;;;6.76;82.08;99936.69;4986670;28;20026;-56
2023/03/13 05:59:13;;;;;;;14.00;5.65;;;;;;;6.80;81.96;99934.75;4989243;28;20034;-54
2023/03/13 06:01:38;;;;;;;18.35;5.13;;;;;;;6.82;82.19;99936.34;4981681;28;20030;-53
2023/03/13 06:04:03;;;;;;;23.73;7.15;;;;;;;6.82;82.18;99923.25;4992883;28;20433;-54
2023/03/13 06:06:29;;;;;;;24.27;5.28;;;;;;;6.84;81.80;99913.56;4986176;28;22639;-55
2023/03/13 06:08:54;;;;;;;19.15;5.40;;;;;;;6.86;82.04;99911.72;4995787;28;20030;-55
2023/03/13 06:11:20;;;;;;;13.63;3.28;;;;;;;6.87;81.97;99909.97;4992218;28;20110;-56
2023/03/13 06:13:45;;;;;;;19.55;5.00;;;;;;;6.89;81.91;99910.69;4991140;28;20509;-56
2023/03/13 06:16:11;;;;;;;21.48;4.85;;;;;;;6.91;82.07;99900.16;5004445;28;20524;-55
2023/03/13 06:18:36;;;;;;;19.02;5.53;;;;;;;6.93;82.18;99900.94;4993415;28;20496;-56
2023/03/13 06:21:02;;;;;;;17.95;5.53;;;;;;;6.93;82.00;99895.69;4982337;28;20038;-56
2023/03/13 06:23:28;;;;;;;22.30;5.18;;;;;;;6.93;82.09;99900.94;4985394;28;20026;-56
2023/03/13 06:25:54;;;;;;;21.27;5.13;;;;;;;6.91;81.97;99887.91;4990306;28;20102;-56
2023/03/13 06:28:19;;;;;;;18.42;5.22;;;;;;;6.94;81.83;99884.31;4983399;28;20057;-55
2023/03/13 06:30:45;;;;;;;17.40;5.82;;;;;;;6.94;82.18;99877.28;4991744;28;20026;-55
2023/03/13 06:33:11;;;;;;;17.50;4.43;;;;;;;6.98;82.04;99881.41;4993815;28;20031;-54
2023/03/13 06:35:40;;;;;;;17.98;5.43;;;;;;;7.04;81.89;99874.13;4989373;28;20041;-54
2023/03/13 06:38:06;;;;;;;20.45;6.05;;;;;;;7.07;82.22;99873.97;4994387;28;20032;-54
2023/03/13 06:40:31;;;;;;;21.23;5.28;;;;;;;7.10;81.78;99872.03;4991997;28;20026;-53
2023/03/13 06:42:57;;;;;;;21.70;5.07;;;;;;;7.14;81.82;99864.84;4997767;28;20076;-54
2023/03/13 06:45:22;;;;;;;26.60;5.03;;;;;;;7.17;82.05;99869.91;4995613;28;20480;-53
2023/03/13 06:47:50;;;;;;;19.92;4.70;;;;;;;7.18;81.90;99861.13;4999569;28;20034;-53
2023/03/13 06:50:16;;;;;;;17.30;4.97;;;;;;;7.19;82.00;99857.56;4993203;28;20073;-53
2023/03/13 06:52:41;;;;;;;22.92;5.60;;;;;;;7.21;82.13;99853.09;5000554;28;20022;-56
2023/03/13 06:55:07;;;;;;;22.25;6.03;;;;;;;7.23;82.05;99840.75;4995260;28;20037;-56
2023/03/13 06:57:33;;;;;;;22.17;4.60;;;;;;;7.25;82.09;99841.53;4999398;28;20033;-53
2023/03/13 06:59:58;;;;;;;15.00;5.18;;;;;;;7.29;82.00;99843.03;4997085;28;20109;-55
2023/03/13 07:02:24;;;;;;;22.73;4.75;;;;;;;7.29;82.10;99843.03;4989649;28;20035;-58
2023/03/13 07:04:50;;;;;;;18.20;5.90;;;;;;;7.30;82.08;99836.00;4988669;28;20038;-54
2023/03/13 07:07:15;;;;;;;18.70;4.30;;;;;;;7.32;82.04;99827.16;4993277;28;20030;-56
2023/03/13 07:09:40;;;;;;;21.92;4.32;;;;;;;7.36;82.05;99824.34;4994815;28;20034;-56
2023/03/13 07:12:06;;;;;;;22.67;4.82;;;;;;;7.40;81.90;99818.00;4994871;28;20034;-56
2023/03/13 07:14:31;;;;;;;20.25;4.20;;;;;;;7.45;81.81;99815.97;4992270;28;20287;-52
2023/03/13 07:16:58;;;;;;;16.20;4.00;;;;;;;7.51;81.66;99806.88;4992671;28;20034;-56
2023/03/13 07:19:25;;;;;;;20.38;4.47;;;;;;;7.56;81.51;99808.28;4992537;28;20041;-53
2023/03/13 07:21:51;;;;;;;15.55;4.75;;;;;;;7.60;81.39;99794.09;4987748;28;20022;-56
2023/03/13 07:24:17;;;;;;;16.20;5.15;;;;;;;7.69;81.44;99782.22;4991945;28;20038;-53
2023/03/13 07:26:43;;;;;;;17.25;4.70;;;;;;;7.72;81.41;99771.53;4993126;28;20499;-55
2023/03/13 07:29:09;;;;;;;22.83;5.05;;;;;;;7.75;81.26;99760.06;4992511;28;20702;-55
2023/03/13 07:31:34;;;;;;;24.77;5.40;;;;;;;7.78;81.14;99771.16;4996362;28;20104;-55
2023/03/13 07:34:00;;;;;;;11.93;3.78;;;;;;;7.81;81.25;99764.88;4990758;28;20543;-53
2023/03/13 07:36:26;;;;;;;21.23;4.35;;;;;;;7.81;81.40;99757.03;4993867;28;20456;-55
2023/03/13 07:38:52;;;;;;;15.00;4.57;;;;;;;7.84;81.31;99750.78;4989035;28;20042;-54
2023/03/13 07:41:18;;;;;;;27.08;4.70;;;;;;;7.90;81.52;99747.75;4986262;28;20030;-57
2023/03/13 07:43:45;;;;;;;25.40;5.22;;;;;;;7.99;81.23;99738.50;4987580;28;20113;-53
2023/03/13 07:46:20;;;;;;;16.33;4.68;;;;;;;8.07;80.90;99739.69;4993180;28;20064;-56
2023/03/13 07:48:46;;;;;;;16.35;4.50;;;;;;;8.11;80.98;99729.03;4983702;28;20027;-58
2023/03/13 07:51:18;;;;;;;14.32;4.55;;;;;;;8.15;80.86;99736.59;4984510;28;20046;-60
2023/03/13 07:53:46;;;;;;;21.38;6.47;;;;;;;8.16;80.79;99737.44;4988938;28;20559;-54
2023/03/13 07:56:14;;;;;;;20.73;4.10;;;;;;;8.15;80.70;99741.81;4989109;28;20527;-56
2023/03/13 07:58:41;;;;;;;23.55;4.55;;;;;;;8.13;81.19;99735.00;4987819;28;20026;-58
2023/03/13 08:01:09;;;;;;;14.75;3.97;;;;;;;8.15;80.90;99735.75;4990153;28;20085;-55
2023/03/13 08:03:35;;;;;;;14.90;4.90;;;;;;;8.23;80.85;99725.63;4991222;28;20420;-56
2023/03/13 08:06:04;;;;;;;19.73;4.72;;;;;;;8.29;81.00;99729.59;4995079;28;20050;-56
2023/03/13 08:08:30;;;;;;;20.48;4.88;;;;;;;8.34;80.97;99730.16;4989870;28;20068;-54
2023/03/13 08:11:16;;;;;;;22.33;5.60;;;;;;;8.35;80.78;99724.00;4990922;28;20461;-55
2023/03/13 08:13:42;;;;;;;14.23;3.78;;;;;;;8.34;80.59;99707.41;4985063;28;20481;-53
2023/03/13 08:16:09;;;;;;;13.10;4.97;;;;;;;8.30;80.93;99703.31;4982044;28;20046;-57
2023/03/13 08:18:36;;;;;;;29.63;5.65;;;;;;;8.26;80.97;99696.59;4997563;28;20031;-57
2023/03/13 08:21:16;;;;;;;15.75;5.15;;;;;;;8.28;80.86;99691.22;4985752;28;20022;-56
2023/03/13 08:23:42;;;;;;;15.80;4.63;;;;;;;8.30;80.95;99681.50;4988632;28;20488;-54
2023/03/13 08:26:14;;;;;;;25.17;5.20;;;;;;;8.36;81.09;99675.88;4988260;28;20034;-56
2023/03/13 08:28:40;;;;;;;20.25;4.95;;;;;;;8.37;80.96;99662.66;4986252;28;20527;-56
2023/03/13 08:31:09;;;;;;;18.13;4.57;;;;;;;8.35;81.04;99675.00;4989491;28;20038;-57
2023/03/13 08:33:35;;;;;;;15.88;4.65;;;;;;;8.31;80.96;99668.31;4990870;28;20022;-54
2023/03/13 08:36:11;;;;;;;23.02;5.05;;;;;;;8.28;81.24;99668.50;4989424;28;20033;-52
2023/03/13 08:38:38;;;;;;;17.77;4.28;;;;;;;8.34;81.13;99659.41;4989952;28;20029;-54
2023/03/13 08:41:04;;;;;;;16.63;3.38;;;;;;;8.49;80.89;99652.31;4987543;28;20030;-57
2023/03/13 08:43:29;;;;;;;22.67;3.97;;;;;;;8.59;80.80;99644.69;4992892;28;20056;-55
2023/03/13 08:45:55;;;;;;;19.60;4.18;;;;;;;8.73;80.51;99639.34;4988497;28;20030;-56
2023/03/13 08:48:21;;;;;;;20.80;3.85;;;;;;;8.84;80.10;99623.75;4992300;28;20030;-55
2023/03/13 08:50:46;;;;;;;19.13;5.68;;;;;;;8.90;79.90;99617.22;4990491;28;20023;-53
2023/03/13 08:53:12;;;;;;;22.92;4.18;;;;;;;8.92;80.00;99612.72;4988693;28;20030;-55
2023/03/13 08:55:37;;;;;;;24.38;4.75;;;;;;;8.92;80.08;99604.00;4990694;28;20022;-56
2023/03/13 08:58:03;;;;;;;21.88;4.55;;;;;;;8.93;80.00;99608.28;4989613;28;20038;-53
2023/03/13 09:00:28;;;;;;;19.15;3.53;;;;;;;8.90;80.28;99616.38;4991494;28;20023;-55
2023/03/13 09:02:56;;;;;;;17.83;3.80;;;;;;;8.89;80.19;99601.56;4990387;28;20034;-55
2023/03/13 09:05:22;;;;;;;20.23;3.60;;;;;;;8.89;80.12;99605.06;4991134;28;20097;-56
2023/03/13 09:07:48;;;;;;;16.08;3.65;;;;;;;8.90;80.76;99606.72;4988958;28;20121;-55
2023/03/13 09:10:14;;;;;;;20.35;3.90;;;;;;;8.90;80.45;99596.25;4994367;28;20531;-55
2023/03/13 09:12:40;;;;;;;18.63;3.85;;;;;;;8.88;80.79;99597.25;4991753;28;20030;-53
2023/03/13 09:15:06;;;;;;;12.82;4.68;;;;;;;8.88;80.85;99603.38;4993944;28;20034;-56
2023/03/13 09:17:32;;;;;;;22.08;4.90;;;;;;;8.86;80.98;99600.00;4991811;28;20023;-54
2023/03/13 09:19:57;;;;;;;19.23;4.28;;;;;;;8.83;80.99;99590.56;4989585;28;20029;-56
2023/03/13 09:22:23;;;;;;;18.30;4.10;;;;;;;8.77;81.32;99588.38;4987610;28;20036;-56
2023/03/13 09:24:48;;;;;;;18.60;3.75;;;;;;;8.76;81.36;99578.00;4985997;28;20034;-52
2023/03/13 09:27:13;;;;;;;15.48;4.13;;;;;;;8.69;81.83;99577.56;4990191;28;20042;-55
2023/03/13 09:29:41;;;;;;;13.13;3.65;;;;;;;8.64;82.05;99575.25;4987362;28;20030;-57
2023/03/13 09:32:06;;;;;;;13.95;5.22;;;;;;;8.64;82.04;99574.41;4988191;28;20034;-54
2023/03/13 09:34:32;;;;;;;18.35;3.78;;;;;;;8.64;82.24;99571.78;4989055;28;20092;-57
2023/03/13 09:36:57;;;;;;;12.48;3.25;;;;;;;8.64;82.50;99569.16;4989728;28;20037;-53
2023/03/13 09:39:23;;;;;;;19.77;3.80;;;;;;;8.62;82.45;99556.16;4987986;28;20038;-53
2023/03/13 09:42:01;;;;;;;12.02;2.47;;;;;;;8.64;82.73;99567.38;4985661;28;20034;-56
2023/03/13 09:44:31;;;;;;;7.75;2.75;;;;;;;8.69;82.51;99557.41;4995187;28;20101;-54
2023/03/13 09:47:04;;;;;;;19.80;3.83;;;;;;;8.75;82.54;99561.41;4990601;28;20023;-56
2023/03/13 09:49:47;;;;;;;10.55;2.90;;;;;;;8.77;82.49;99551.66;4991072;28;20113;-54
2023/03/13 09:52:30;;;;;;;8.40;3.05;;;;;;;8.80;82.72;99543.56;4990128;28;20053;-56
2023/03/13 09:54:58;;;;;;;18.48;2.60;;;;;;;8.82;82.51;99546.94;4983555;28;20030;-56
2023/03/13 09:57:37;;;;;;;9.10;2.80;;;;;;;8.84;82.41;99550.28;4987426;28;20034;-56
2023/03/13 10:00:18;;;;;;;7.68;2.67;;;;;;;8.83;82.93;99545.97;4991484;28;20031;-53
2023/03/13 10:03:12;;;;;;;8.25;2.70;;;;;;;8.83;83.22;99547.75;4994652;28;20083;-54
2023/03/13 10:05:54;;;;;;;11.77;3.50;;;;;;;8.85;83.34;99549.31;4990932;28;20021;-59
2023/03/13 10:08:23;;;;;;;7.20;2.50;;;;;;;8.87;83.09;99543.97;4991947;28;20041;-56
2023/03/13 10:11:10;;;;;;;11.95;2.75;;;;;;;8.89;83.44;99536.84;4990818;28;20400;-55
2023/03/13 10:14:26;;;;;;;13.32;2.85;;;;;;;8.95;83.76;99533.78;4990180;28;20030;-54
2023/03/13 10:17:08;;;;;;;12.05;2.83;;;;;;;9.04;83.39;99524.41;4975672;28;20041;-54
2023/03/13 10:19:36;;;;;;;17.52;3.97;;;;;;;9.12;83.17;99529.13;4993122;28;20447;-54
2023/03/13 10:22:13;;;;;;;7.72;2.67;;;;;;;9.19;83.06;99521.66;4994373;28;20085;-54
2023/03/13 10:24:57;;;;;;;14.20;2.70;;;;;;;9.28;83.10;99513.13;4991112;28;20469;-59
2023/03/13 10:27:23;;;;;;;11.45;3.20;;;;;;;9.32;82.92;99511.13;4992616;28;20030;-54
2023/03/13 10:29:48;;;;;;;8.30;2.88;;;;;;;9.32;83.01;99514.56;4993651;28;20440;-56
2023/03/13 10:32:16;;;;;;;6.35;2.70;;;;;;;9.37;83.15;99512.44;4989689;28;20034;-59
2023/03/13 10:34:59;;;;;;;9.60;3.03;;;;;;;9.38;83.08;99501.00;4994245;28;20481;-53
2023/03/13 10:37:40;;;;;;;7.68;3.00;;;;;;;9.38;83.21;99501.00;4989653;28;20707;-53
2023/03/13 10:40:26;;;;;;;11.48;2.67;;;;;;;9.39;83.29;99505.31;4990159;28;20041;-55
2023/03/13 10:42:59;;;;;;;11.35;3.35;;;;;;;9.37;83.23;99503.75;4985751;28;20022;-53
2023/03/13 10:45:26;;;;;;;6.38;2.42;;;;;;;9.36;83.45;99481.06;4994925;28;20038;-53
2023/03/13 10:47:58;;;;;;;8.95;2.33;;;;;;;9.33;83.55;99482.13;4985685;28;20039;-53
2023/03/13 10:50:26;;;;;;;11.35;2.83;;;;;;;9.30;83.81;99496.31;4991646;28;20030;-54
2023/03/13 10:52:53;;;;;;;8.75;2.35;;;;;;;9.33;83.77;99499.66;4991565;28;20125;-53
2023/03/13 10:55:24;;;;;;;9.25;2.38;;;;;;;9.38;83.99;99489.66;4992083;28;20027;-52
2023/03/13 10:57:59;;;;;;;5.55;2.05;;;;;;;9.45;83.77;99481.22;4988244;28;20027;-55
2023/03/13 11:00:38;;;;;;;8.73;2.17;;;;;;;9.56;83.55;99476.97;4990750;28;20504;-55
2023/03/13 11:03:25;;;;;;;9.55;2.53;;;;;;;9.66;83.66;99456.94;4990185;28;20057;-56
2023/03/13 11:05:58;;;;;;;9.32;2.00;;;;;;;9.76;83.25;99473.69;4989549;28;20032;-54
2023/03/13 11:08:27;;;;;;;8.00;2.40;;;;;;;9.90;82.87;99458.72;4989981;28;20124;-53
2023/03/13 11:11:01;;;;;;;5.55;2.15;;;;;;;9.98;82.76;99451.06;4992670;28;20032;-55
2023/03/13 11:13:34;;;;;;;6.53;1.75;;;;;;;10.04;82.51;99458.50;4989823;28;20030;-53
2023/03/13 11:16:12;;;;;;;14.48;2.10;;;;;;;10.16;82.45;99446.19;4991414;28;20046;-55
2023/03/13 11:19:11;;;;;;;9.02;1.95;;;;;;;10.36;82.42;99449.06;4989295;28;20488;-58
2023/03/13 11:21:49;;;;;;;5.32;1.95;;;;;;;10.57;81.69;99445.78;4989302;28;20149;-55
2023/03/13 11:24:26;;;;;;;9.65;2.67;;;;;;;10.76;80.78;99439.88;4989201;28;20062;-55
2023/03/13 11:27:14;;;;;;;10.32;2.20;;;;;;;10.87;80.66;99452.19;4988048;28;20053;-55
2023/03/13 11:29:45;;;;;;;8.85;1.95;;;;;;;10.78;80.99;99443.25;4991616;28;20512;-54
2023/03/13 11:32:25;;;;;;;6.85;2.00;;;;;;;10.76;80.95;99442.53;4991770;28;20117;-58
2023/03/13 11:34:56;;;;;;;7.00;2.50;;;;;;;10.73;81.29;99445.38;4988334;28;20026;-57
2023/03/13 11:37:23;;;;;;;11.95;3.00;;;;;;;10.71;81.41;99449.94;4988956;28;20042;-56
2023/03/13 11:39:52;;;;;;;14.85;2.22;;;;;;;10.79;80.92;99440.47;4980805;28;20034;-57
2023/03/13 11:42:17;;;;;;;7.85;2.20;;;;;;;10.89;81.03;99434.50;4982670;28;20030;-57
2023/03/13 11:45:10;;;;;;;8.80;2.00;;;;;;;10.95;80.87;99434.84;4984408;28;20026;-54
2023/03/13 11:47:49;;;;;;;8.68;2.25;;;;;;;11.01;80.79;99440.53;4987010;28;20041;-56
2023/03/13 11:50:30;;;;;;;9.98;2.65;;;;;;;11.10;80.42;99421.41;4993311;28;20343;-57